Terminal Aerodrome Forecast
Issued by NWS Grand Forks, ND

Home | Current Version | Previous Version | Graphics & Text | Print | Product List | Glossary On
Versions: 1 2 3 4 5 6 7 8 9 10 11 12 13
000
FTUS43 KFGF 171130
TAFFAR
TAF
KFAR 171130Z 1712/1812 18008KT P6SM FEW250
     FM171800 20013G20KT P6SM SKC
     FM180300 19011KT P6SM SKC WS020/24035KT
     FM180700 19011KT P6SM SKC WS020/23045KT
     FM180900 18012KT P6SM SKC WS020/23035KT
     FM181100 20010KT P6SM FEW250 WS020/26035KT=

USA.gov is the U.S. government's official web portal to all federal, state and local government web resources and services.